sensor_id;sensor_type;location;lat;lon;timestamp;pressure;altitude;pressure_sealevel;temperature;humidity
20628;BME280;10473;42.734;24.258;2023-02-04T00:01:25;91580.00;;;0.04;77.91
20628;BME280;10473;42.734;24.258;2023-02-04T00:03:53;91579.28;;;0.03;79.01
20628;BME280;10473;42.734;24.258;2023-02-04T00:06:22;91577.69;;;0.19;79.05
20628;BME280;10473;42.734;24.258;2023-02-04T00:08:50;91574.50;;;0.22;78.35
20628;BME280;10473;42.734;24.258;2023-02-04T00:11:18;91558.28;;;0.08;78.83
20628;BME280;10473;42.734;24.258;2023-02-04T00:13:45;91565.63;;;0.15;79.00
20628;BME280;10473;42.734;24.258;2023-02-04T00:16:13;91559.97;;;0.04;79.27
20628;BME280;10473;42.734;24.258;2023-02-04T00:18:40;91550.88;;;0.19;78.74
20628;BME280;10473;42.734;24.258;2023-02-04T00:21:08;91553.66;;;0.22;78.29
20628;BME280;10473;42.734;24.258;2023-02-04T00:23:37;91541.69;;;0.21;77.71
20628;BME280;10473;42.734;24.258;2023-02-04T00:26:05;91539.69;;;0.27;78.24
20628;BME280;10473;42.734;24.258;2023-02-04T00:28:33;91533.38;;;0.36;77.63
20628;BME280;10473;42.734;24.258;2023-02-04T00:31:00;91531.06;;;0.43;77.59
20628;BME280;10473;42.734;24.258;2023-02-04T00:33:28;91536.44;;;0.38;77.13
20628;BME280;10473;42.734;24.258;2023-02-04T00:35:56;91526.81;;;0.30;77.97
20628;BME280;10473;42.734;24.258;2023-02-04T00:38:23;91534.41;;;0.52;77.38
20628;BME280;10473;42.734;24.258;2023-02-04T00:40:52;91519.13;;;0.43;76.60
20628;BME280;10473;42.734;24.258;2023-02-04T00:43:20;91519.91;;;0.34;77.49
20628;BME280;10473;42.734;24.258;2023-02-04T00:45:48;91510.09;;;0.31;77.63
20628;BME280;10473;42.734;24.258;2023-02-04T00:48:15;91508.88;;;0.29;77.87
20628;BME280;10473;42.734;24.258;2023-02-04T00:50:43;91513.72;;;0.47;77.16
20628;BME280;10473;42.734;24.258;2023-02-04T00:53:11;91509.31;;;0.39;77.89
20628;BME280;10473;42.734;24.258;2023-02-04T00:55:39;91506.94;;;0.55;77.32
20628;BME280;10473;42.734;24.258;2023-02-04T00:58:08;91499.25;;;0.58;77.55
20628;BME280;10473;42.734;24.258;2023-02-04T01:00:36;91491.31;;;0.55;76.87
20628;BME280;10473;42.734;24.258;2023-02-04T01:03:03;91486.06;;;0.63;76.65
20628;BME280;10473;42.734;24.258;2023-02-04T01:05:31;91481.94;;;0.63;76.96
20628;BME280;10473;42.734;24.258;2023-02-04T01:07:59;91475.81;;;0.58;76.71
20628;BME280;10473;42.734;24.258;2023-02-04T01:10:27;91464.84;;;0.44;77.14
20628;BME280;10473;42.734;24.258;2023-02-04T01:12:54;91472.00;;;0.56;77.63
20628;BME280;10473;42.734;24.258;2023-02-04T01:15:24;91463.16;;;0.48;76.88
20628;BME280;10473;42.734;24.258;2023-02-04T01:17:53;91459.75;;;0.48;76.76
20628;BME280;10473;42.734;24.258;2023-02-04T01:20:21;91443.38;;;0.18;77.12
20628;BME280;10473;42.734;24.258;2023-02-04T01:22:49;91430.41;;;0.01;79.26
20628;BME280;10473;42.734;24.258;2023-02-04T01:25:17;91433.38;;;0.20;78.61
20628;BME280;10473;42.734;24.258;2023-02-04T01:27:45;91430.91;;;0.32;78.28
20628;BME280;10473;42.734;24.258;2023-02-04T01:30:14;91442.72;;;0.30;78.29
20628;BME280;10473;42.734;24.258;2023-02-04T01:32:43;91431.50;;;0.29;77.64
20628;BME280;10473;42.734;24.258;2023-02-04T01:35:11;91420.59;;;0.36;77.88
20628;BME280;10473;42.734;24.258;2023-02-04T01:37:39;91420.69;;;0.19;78.65
20628;BME280;10473;42.734;24.258;2023-02-04T01:40:08;91413.22;;;0.09;78.44
20628;BME280;10473;42.734;24.258;2023-02-04T01:42:36;91415.75;;;0.26;78.92
20628;BME280;10473;42.734;24.258;2023-02-04T01:45:05;91412.16;;;0.10;78.65
20628;BME280;10473;42.734;24.258;2023-02-04T01:47:34;91401.91;;;0.05;79.61
20628;BME280;10473;42.734;24.258;2023-02-04T01:50:05;91408.59;;;0.14;79.55
20628;BME280;10473;42.734;24.258;2023-02-04T01:52:35;91407.53;;;0.15;78.66
20628;BME280;10473;42.734;24.258;2023-02-04T01:55:11;91406.63;;;0.11;79.03
20628;BME280;10473;42.734;24.258;2023-02-04T01:57:40;91393.22;;;0.01;79.63
20628;BME280;10473;42.734;24.258;2023-02-04T02:00:13;91398.09;;;0.03;79.96
20628;BME280;10473;42.734;24.258;2023-02-04T02:02:44;91392.91;;;0.03;78.91
20628;BME280;10473;42.734;24.258;2023-02-04T02:05:15;91390.38;;;0.14;79.96
20628;BME280;10473;42.734;24.258;2023-02-04T02:07:44;91395.69;;;-0.11;80.34
20628;BME280;10473;42.734;24.258;2023-02-04T02:10:12;91385.00;;;-0.18;80.50
20628;BME280;10473;42.734;24.258;2023-02-04T02:12:41;91370.00;;;-0.21;80.25
20628;BME280;10473;42.734;24.258;2023-02-04T02:15:10;91374.03;;;-0.32;81.57
20628;BME280;10473;42.734;24.258;2023-02-04T02:17:39;91373.44;;;-0.38;80.89
20628;BME280;10473;42.734;24.258;2023-02-04T02:20:09;91371.75;;;-0.34;81.78
20628;BME280;10473;42.734;24.258;2023-02-04T02:22:43;91357.47;;;-0.28;81.10
20628;BME280;10473;42.734;24.258;2023-02-04T02:25:16;91371.34;;;-0.07;81.14
20628;BME280;10473;42.734;24.258;2023-02-04T02:27:43;91363.19;;;-0.05;81.06
20628;BME280;10473;42.734;24.258;2023-02-04T02:30:13;91363.91;;;0.13;80.63
20628;BME280;10473;42.734;24.258;2023-02-04T02:32:43;91360.97;;;0.14;80.84
20628;BME280;10473;42.734;24.258;2023-02-04T02:35:12;91350.94;;;0.24;80.54
20628;BME280;10473;42.734;24.258;2023-02-04T02:37:40;91348.09;;;0.38;79.48
20628;BME280;10473;42.734;24.258;2023-02-04T02:40:09;91353.44;;;0.41;79.33
20628;BME280;10473;42.734;24.258;2023-02-04T02:42:41;91344.75;;;0.38;79.38
20628;BME280;10473;42.734;24.258;2023-02-04T02:45:17;91336.56;;;0.47;79.27
20628;BME280;10473;42.734;24.258;2023-02-04T02:47:48;91323.91;;;0.38;79.05
20628;BME280;10473;42.734;24.258;2023-02-04T02:50:19;91336.75;;;0.43;79.45
20628;BME280;10473;42.734;24.258;2023-02-04T02:52:48;91332.69;;;0.53;79.34
20628;BME280;10473;42.734;24.258;2023-02-04T02:55:17;91317.16;;;0.36;78.51
20628;BME280;10473;42.734;24.258;2023-02-04T02:57:48;91330.25;;;0.48;79.23
20628;BME280;10473;42.734;24.258;2023-02-04T03:00:19;91321.09;;;0.63;78.86
20628;BME280;10473;42.734;24.258;2023-02-04T03:02:56;91320.41;;;0.54;78.67
20628;BME280;10473;42.734;24.258;2023-02-04T03:05:26;91312.34;;;0.47;79.03
20628;BME280;10473;42.734;24.258;2023-02-04T03:07:55;91320.09;;;0.55;78.53
20628;BME280;10473;42.734;24.258;2023-02-04T03:10:23;91320.22;;;0.59;78.33
20628;BME280;10473;42.734;24.258;2023-02-04T03:12:52;91308.53;;;0.65;78.53
20628;BME280;10473;42.734;24.258;2023-02-04T03:15:20;91307.72;;;0.52;79.14
20628;BME280;10473;42.734;24.258;2023-02-04T03:17:48;91302.44;;;0.61;78.36
20628;BME280;10473;42.734;24.258;2023-02-04T03:20:22;91285.78;;;0.53;78.46
20628;BME280;10473;42.734;24.258;2023-02-04T03:22:52;91283.75;;;0.38;78.90
20628;BME280;10473;42.734;24.258;2023-02-04T03:25:21;91284.88;;;0.49;79.51
20628;BME280;10473;42.734;24.258;2023-02-04T03:27:53;91280.44;;;0.50;79.35
20628;BME280;10473;42.734;24.258;2023-02-04T03:30:22;91274.06;;;0.59;78.90
20628;BME280;10473;42.734;24.258;2023-02-04T03:32:50;91258.84;;;0.49;79.39
20628;BME280;10473;42.734;24.258;2023-02-04T03:35:18;91252.00;;;0.45;79.23
20628;BME280;10473;42.734;24.258;2023-02-04T03:37:46;91245.53;;;0.63;78.77
20628;BME280;10473;42.734;24.258;2023-02-04T03:40:14;91247.00;;;0.73;78.65
20628;BME280;10473;42.734;24.258;2023-02-04T03:42:42;91247.38;;;0.63;78.54
20628;BME280;10473;42.734;24.258;2023-02-04T03:45:11;91236.88;;;0.71;78.11
20628;BME280;10473;42.734;24.258;2023-02-04T03:47:39;91249.69;;;0.64;77.82
20628;BME280;10473;42.734;24.258;2023-02-04T03:50:07;91245.22;;;0.64;79.19
20628;BME280;10473;42.734;24.258;2023-02-04T03:52:36;91253.72;;;0.73;78.30
20628;BME280;10473;42.734;24.258;2023-02-04T03:55:04;91254.13;;;0.43;79.22
20628;BME280;10473;42.734;24.258;2023-02-04T03:57:32;91254.00;;;0.60;78.31
20628;BME280;10473;42.734;24.258;2023-02-04T04:00:00;91246.00;;;0.44;78.76
20628;BME280;10473;42.734;24.258;2023-02-04T04:02:39;91234.88;;;0.56;78.64
20628;BME280;10473;42.734;24.258;2023-02-04T04:05:08;91237.72;;;0.63;79.13
20628;BME280;10473;42.734;24.258;2023-02-04T04:07:36;91230.47;;;0.68;78.42
20628;BME280;10473;42.734;24.258;2023-02-04T04:10:04;91230.25;;;0.73;78.51
20628;BME280;10473;42.734;24.258;2023-02-04T04:12:32;91245.13;;;0.73;77.87
20628;BME280;10473;42.734;24.258;2023-02-04T04:15:00;91228.25;;;0.58;77.69
20628;BME280;10473;42.734;24.258;2023-02-04T04:17:27;91234.19;;;0.47;78.39
20628;BME280;10473;42.734;24.258;2023-02-04T04:19:56;91215.75;;;0.31;79.54
20628;BME280;10473;42.734;24.258;2023-02-04T04:22:24;91219.97;;;0.56;78.71
20628;BME280;10473;42.734;24.258;2023-02-04T04:24:53;91213.84;;;0.61;79.04
20628;BME280;10473;42.734;24.258;2023-02-04T04:27:21;91207.63;;;0.65;77.94
20628;BME280;10473;42.734;24.258;2023-02-04T04:29:48;91201.03;;;0.68;77.77
20628;BME280;10473;42.734;24.258;2023-02-04T04:32:16;91215.06;;;0.75;78.67
20628;BME280;10473;42.734;24.258;2023-02-04T04:34:44;91203.59;;;0.88;77.99
20628;BME280;10473;42.734;24.258;2023-02-04T04:37:13;91186.25;;;0.60;77.80
20628;BME280;10473;42.734;24.258;2023-02-04T04:39:41;91206.03;;;0.73;78.15
20628;BME280;10473;42.734;24.258;2023-02-04T04:42:08;91197.72;;;0.59;79.05
20628;BME280;10473;42.734;24.258;2023-02-04T04:44:36;91199.19;;;0.68;78.66
20628;BME280;10473;42.734;24.258;2023-02-04T04:47:04;91209.22;;;0.78;78.90
20628;BME280;10473;42.734;24.258;2023-02-04T04:49:32;91199.66;;;0.82;78.35
20628;BME280;10473;42.734;24.258;2023-02-04T04:51:59;91212.50;;;0.88;78.32
20628;BME280;10473;42.734;24.258;2023-02-04T04:54:28;91207.81;;;0.93;78.49
20628;BME280;10473;42.734;24.258;2023-02-04T04:56:56;91198.16;;;0.82;78.01
20628;BME280;10473;42.734;24.258;2023-02-04T04:59:24;91192.69;;;0.74;78.90
20628;BME280;10473;42.734;24.258;2023-02-04T05:01:51;91192.34;;;0.64;79.12
20628;BME280;10473;42.734;24.258;2023-02-04T05:04:19;91197.69;;;0.79;79.87
20628;BME280;10473;42.734;24.258;2023-02-04T05:06:47;91205.00;;;0.86;79.00
20628;BME280;10473;42.734;24.258;2023-02-04T05:09:14;91211.28;;;0.85;79.66
20628;BME280;10473;42.734;24.258;2023-02-04T05:11:44;91212.03;;;0.85;79.91
20628;BME280;10473;42.734;24.258;2023-02-04T05:14:13;91211.78;;;0.67;80.38
20628;BME280;10473;42.734;24.258;2023-02-04T05:16:40;91216.81;;;0.83;80.04
20628;BME280;10473;42.734;24.258;2023-02-04T05:19:08;91204.00;;;0.78;80.37
20628;BME280;10473;42.734;24.258;2023-02-04T05:21:36;91208.69;;;0.85;80.63
20628;BME280;10473;42.734;24.258;2023-02-04T05:24:03;91220.94;;;0.73;81.88
20628;BME280;10473;42.734;24.258;2023-02-04T05:26:32;91216.94;;;0.87;81.39
20628;BME280;10473;42.734;24.258;2023-02-04T05:29:01;91201.63;;;0.53;81.92
20628;BME280;10473;42.734;24.258;2023-02-04T05:31:28;91201.59;;;0.73;81.91
20628;BME280;10473;42.734;24.258;2023-02-04T05:33:56;91217.22;;;0.73;82.03
20628;BME280;10473;42.734;24.258;2023-02-04T05:36:24;91215.41;;;0.86;81.71
20628;BME280;10473;42.734;24.258;2023-02-04T05:38:51;91210.03;;;0.58;82.13
20628;BME280;10473;42.734;24.258;2023-02-04T05:41:19;91215.63;;;0.81;82.51
20628;BME280;10473;42.734;24.258;2023-02-04T05:43:47;91213.78;;;0.82;82.31
20628;BME280;10473;42.734;24.258;2023-02-04T05:46:16;91208.78;;;0.88;81.45
20628;BME280;10473;42.734;24.258;2023-02-04T05:48:44;91211.50;;;0.92;81.67
20628;BME280;10473;42.734;24.258;2023-02-04T05:51:11;91210.22;;;0.98;81.07
20628;BME280;10473;42.734;24.258;2023-02-04T05:53:39;91229.25;;;1.10;81.04
20628;BME280;10473;42.734;24.258;2023-02-04T05:56:07;91224.69;;;1.19;80.92
20628;BME280;10473;42.734;24.258;2023-02-04T05:58:34;91224.38;;;1.09;81.25
20628;BME280;10473;42.734;24.258;2023-02-04T06:01:03;91218.19;;;1.25;81.49
20628;BME280;10473;42.734;24.258;2023-02-04T06:03:33;91216.38;;;1.38;80.92
20628;BME280;10473;42.734;24.258;2023-02-04T06:06:01;91221.69;;;1.42;80.31
20628;BME280;10473;42.734;24.258;2023-02-04T06:08:29;91209.75;;;1.41;80.26
20628;BME280;10473;42.734;24.258;2023-02-04T06:10:56;91215.81;;;1.44;80.52
20628;BME280;10473;42.734;24.258;2023-02-04T06:13:24;91195.38;;;1.34;80.49
20628;BME280;10473;42.734;24.258;2023-02-04T06:15:52;91213.53;;;1.43;80.55
20628;BME280;10473;42.734;24.258;2023-02-04T06:18:19;91223.84;;;1.39;80.74
20628;BME280;10473;42.734;24.258;2023-02-04T06:20:48;91212.22;;;1.37;81.12
20628;BME280;10473;42.734;24.258;2023-02-04T06:23:17;91216.38;;;1.38;81.07
20628;BME280;10473;42.734;24.258;2023-02-04T06:25:45;91218.53;;;1.36;81.13
20628;BME280;10473;42.734;24.258;2023-02-04T06:28:14;91206.47;;;1.32;81.54
20628;BME280;10473;42.734;24.258;2023-02-04T06:30:41;91216.66;;;1.24;81.35
20628;BME280;10473;42.734;24.258;2023-02-04T06:33:09;91208.41;;;1.34;81.49
20628;BME280;10473;42.734;24.258;2023-02-04T06:35:38;91216.25;;;1.34;81.68
20628;BME280;10473;42.734;24.258;2023-02-04T06:38:07;91213.97;;;1.33;81.87
20628;BME280;10473;42.734;24.258;2023-02-04T06:40:35;91211.59;;;1.28;82.27
20628;BME280;10473;42.734;24.258;2023-02-04T06:43:03;91230.59;;;1.28;82.58
20628;BME280;10473;42.734;24.258;2023-02-04T06:45:31;91223.63;;;1.33;82.47
20628;BME280;10473;42.734;24.258;2023-02-04T06:47:58;91215.81;;;1.33;82.48
20628;BME280;10473;42.734;24.258;2023-02-04T06:50:26;91204.53;;;1.41;82.18
20628;BME280;10473;42.734;24.258;2023-02-04T06:52:54;91205.59;;;1.52;82.28
20628;BME280;10473;42.734;24.258;2023-02-04T06:55:23;91198.19;;;1.53;81.52
20628;BME280;10473;42.734;24.258;2023-02-04T06:57:50;91203.41;;;1.53;81.65
20628;BME280;10473;42.734;24.258;2023-02-04T07:00:19;91200.91;;;1.57;81.31
20628;BME280;10473;42.734;24.258;2023-02-04T07:02:46;91202.09;;;1.59;81.00
20628;BME280;10473;42.734;24.258;2023-02-04T07:05:14;91209.28;;;1.63;81.21
20628;BME280;10473;42.734;24.258;2023-02-04T07:07:42;91216.47;;;1.66;81.85
20628;BME280;10473;42.734;24.258;2023-02-04T07:10:09;91213.84;;;1.77;80.77
20628;BME280;10473;42.734;24.258;2023-02-04T07:12:39;91208.63;;;1.77;80.43
20628;BME280;10473;42.734;24.258;2023-02-04T07:15:07;91208.72;;;1.81;80.42
20628;BME280;10473;42.734;24.258;2023-02-04T07:17:35;91211.78;;;1.83;80.76
20628;BME280;10473;42.734;24.258;2023-02-04T07:20:04;91210.25;;;1.82;80.76
20628;BME280;10473;42.734;24.258;2023-02-04T07:22:32;91207.31;;;1.83;80.90
20628;BME280;10473;42.734;24.258;2023-02-04T07:25:00;91210.00;;;1.87;80.77
20628;BME280;10473;42.734;24.258;2023-02-04T07:27:27;91199.56;;;1.87;80.99
20628;BME280;10473;42.734;24.258;2023-02-04T07:29:56;91197.72;;;1.88;81.03
20628;BME280;10473;42.734;24.258;2023-02-04T07:32:24;91193.38;;;1.92;81.08
20628;BME280;10473;42.734;24.258;2023-02-04T07:34:53;91196.19;;;1.98;81.23
20628;BME280;10473;42.734;24.258;2023-02-04T07:37:20;91192.59;;;2.03;80.91
20628;BME280;10473;42.734;24.258;2023-02-04T07:39:48;91182.66;;;2.08;81.21
20628;BME280;10473;42.734;24.258;2023-02-04T07:42:16;91200.94;;;2.21;80.66
20628;BME280;10473;42.734;24.258;2023-02-04T07:44:52;91191.53;;;2.32;80.19
20628;BME280;10473;42.734;24.258;2023-02-04T07:47:21;91187.72;;;2.29;79.64
20628;BME280;10473;42.734;24.258;2023-02-04T07:49:48;91178.56;;;2.35;80.23
20628;BME280;10473;42.734;24.258;2023-02-04T07:52:16;91176.03;;;2.38;79.48
20628;BME280;10473;42.734;24.258;2023-02-04T07:54:44;91167.78;;;2.37;79.51
20628;BME280;10473;42.734;24.258;2023-02-04T07:57:11;91177.28;;;2.57;78.72
20628;BME280;10473;42.734;24.258;2023-02-04T07:59:39;91169.38;;;2.69;78.58
20628;BME280;10473;42.734;24.258;2023-02-04T08:02:06;91169.38;;;2.69;78.27
20628;BME280;10473;42.734;24.258;2023-02-04T08:04:37;91170.81;;;2.82;78.22
20628;BME280;10473;42.734;24.258;2023-02-04T08:07:04;91159.50;;;2.78;78.30
20628;BME280;10473;42.734;24.258;2023-02-04T08:09:32;91170.16;;;2.85;77.45
20628;BME280;10473;42.734;24.258;2023-02-04T08:12:00;91172.94;;;2.92;77.34
20628;BME280;10473;42.734;24.258;2023-02-04T08:14:28;91161.13;;;2.97;77.51
20628;BME280;10473;42.734;24.258;2023-02-04T08:16:55;91162.69;;;2.99;76.78
20628;BME280;10473;42.734;24.258;2023-02-04T08:19:23;91162.75;;;3.02;76.92
20628;BME280;10473;42.734;24.258;2023-02-04T08:21:52;91164.53;;;3.14;76.79
20628;BME280;10473;42.734;24.258;2023-02-04T08:24:20;91164.19;;;3.31;76.29
20628;BME280;10473;42.734;24.258;2023-02-04T08:26:47;91169.50;;;3.65;75.60
20628;BME280;10473;42.734;24.258;2023-02-04T08:29:15;91171.78;;;4.01;68.83
20628;BME280;10473;42.734;24.258;2023-02-04T08:31:43;91167.44;;;4.09;65.99
20628;BME280;10473;42.734;24.258;2023-02-04T08:34:12;91138.75;;;4.35;67.68
20628;BME280;10473;42.734;24.258;2023-02-04T08:36:40;91171.19;;;4.46;66.74
20628;BME280;10473;42.734;24.258;2023-02-04T08:39:11;91146.34;;;4.40;64.09
20628;BME280;10473;42.734;24.258;2023-02-04T08:41:38;91153.09;;;4.41;66.06
20628;BME280;10473;42.734;24.258;2023-02-04T08:44:06;91144.50;;;4.59;62.20
20628;BME280;10473;42.734;24.258;2023-02-04T08:46:34;91161.94;;;4.71;61.20
20628;BME280;10473;42.734;24.258;2023-02-04T08:49:01;91162.59;;;5.06;59.18
20628;BME280;10473;42.734;24.258;2023-02-04T08:51:29;91160.06;;;4.71;59.66
20628;BME280;10473;42.734;24.258;2023-02-04T08:53:57;91133.03;;;4.90;56.88
20628;BME280;10473;42.734;24.258;2023-02-04T08:56:26;91165.59;;;5.08;58.53
20628;BME280;10473;42.734;24.258;2023-02-04T08:58:54;91150.41;;;5.88;57.46
20628;BME280;10473;42.734;24.258;2023-02-04T09:01:21;91169.47;;;6.07;56.90
20628;BME280;10473;42.734;24.258;2023-02-04T09:03:49;91163.41;;;6.62;55.23
20628;BME280;10473;42.734;24.258;2023-02-04T09:06:17;91164.56;;;6.98;53.74
20628;BME280;10473;42.734;24.258;2023-02-04T09:08:45;91136.47;;;6.76;51.66
20628;BME280;10473;42.734;24.258;2023-02-04T09:11:12;91163.22;;;6.78;52.05
20628;BME280;10473;42.734;24.258;2023-02-04T09:13:41;91181.19;;;7.42;52.71
20628;BME280;10473;42.734;24.258;2023-02-04T09:16:09;91148.97;;;7.62;51.79
20628;BME280;10473;42.734;24.258;2023-02-04T09:18:37;91163.22;;;8.05;50.94
20628;BME280;10473;42.734;24.258;2023-02-04T09:21:04;91159.44;;;7.52;50.85
20628;BME280;10473;42.734;24.258;2023-02-04T09:23:32;91167.91;;;7.31;50.73
20628;BME280;10473;42.734;24.258;2023-02-04T09:26:00;91141.91;;;7.30;50.50
20628;BME280;10473;42.734;24.258;2023-02-04T09:28:29;91151.56;;;7.55;52.15
20628;BME280;10473;42.734;24.258;2023-02-04T09:30:58;91154.75;;;7.35;51.63
20628;BME280;10473;42.734;24.258;2023-02-04T09:33:28;91153.63;;;7.36;51.01
20628;BME280;10473;42.734;24.258;2023-02-04T09:35:56;91152.38;;;7.63;51.51
20628;BME280;10473;42.734;24.258;2023-02-04T09:38:23;91139.25;;;7.26;51.46
20628;BME280;10473;42.734;24.258;2023-02-04T09:40:53;91145.34;;;7.34;53.10
20628;BME280;10473;42.734;24.258;2023-02-04T09:43:25;91149.75;;;7.66;51.14
20628;BME280;10473;42.734;24.258;2023-02-04T09:45:53;91149.22;;;7.94;49.45
20628;BME280;10473;42.734;24.258;2023-02-04T09:48:23;91118.63;;;8.47;48.50
20628;BME280;10473;42.734;24.258;2023-02-04T09:50:52;91138.75;;;8.76;46.24
20628;BME280;10473;42.734;24.258;2023-02-04T09:53:29;91127.56;;;9.21;45.34
20628;BME280;10473;42.734;24.258;2023-02-04T09:55:58;91129.00;;;8.97;46.42
20628;BME280;10473;42.734;24.258;2023-02-04T09:58:28;91119.22;;;9.08;46.50
20628;BME280;10473;42.734;24.258;2023-02-04T10:01:04;91130.56;;;9.16;46.33
20628;BME280;10473;42.734;24.258;2023-02-04T10:03:38;91128.31;;;9.25;45.69
20628;BME280;10473;42.734;24.258;2023-02-04T10:06:12;91120.03;;;9.37;44.68
20628;BME280;10473;42.734;24.258;2023-02-04T10:08:41;91135.91;;;9.61;46.09
20628;BME280;10473;42.734;24.258;2023-02-04T10:11:10;91136.28;;;9.53;46.58
20628;BME280;10473;42.734;24.258;2023-02-04T10:13:42;91133.25;;;9.26;45.36
20628;BME280;10473;42.734;24.258;2023-02-04T10:16:13;91112.41;;;8.93;46.74
20628;BME280;10473;42.734;24.258;2023-02-04T10:18:44;91110.50;;;8.87;46.99
20628;BME280;10473;42.734;24.258;2023-02-04T10:21:15;91108.63;;;8.91;47.64
20628;BME280;10473;42.734;24.258;2023-02-04T10:23:46;91118.00;;;8.71;47.70
20628;BME280;10473;42.734;24.258;2023-02-04T10:26:15;91099.31;;;8.29;48.20
20628;BME280;10473;42.734;24.258;2023-02-04T10:28:43;91105.88;;;7.91;49.48
20628;BME280;10473;42.734;24.258;2023-02-04T10:31:29;91117.63;;;7.47;51.60
20628;BME280;10473;42.734;24.258;2023-02-04T10:34:10;91112.94;;;6.90;54.48
20628;BME280;10473;42.734;24.258;2023-02-04T10:36:38;91115.28;;;6.62;56.54
20628;BME280;10473;42.734;24.258;2023-02-04T10:39:11;91091.34;;;6.41;58.10
20628;BME280;10473;42.734;24.258;2023-02-04T10:41:45;91105.94;;;6.35;57.33
20628;BME280;10473;42.734;24.258;2023-02-04T10:44:14;91100.50;;;6.21;57.95
20628;BME280;10473;42.734;24.258;2023-02-04T10:46:42;91106.47;;;6.18;58.79
20628;BME280;10473;42.734;24.258;2023-02-04T10:49:19;91106.50;;;6.84;56.09
20628;BME280;10473;42.734;24.258;2023-02-04T10:51:48;91105.03;;;6.90;54.61
20628;BME280;10473;42.734;24.258;2023-02-04T10:54:17;91095.09;;;6.73;54.60
20628;BME280;10473;42.734;24.258;2023-02-04T10:56:59;91089.75;;;7.02;53.61
20628;BME280;10473;42.734;24.258;2023-02-04T10:59:29;91106.44;;;7.17;52.85
20628;BME280;10473;42.734;24.258;2023-02-04T11:01:59;91088.88;;;7.35;52.13
20628;BME280;10473;42.734;24.258;2023-02-04T11:04:30;91085.75;;;7.19;53.40
20628;BME280;10473;42.734;24.258;2023-02-04T11:06:58;91077.50;;;6.80;54.70
20628;BME280;10473;42.734;24.258;2023-02-04T11:09:25;91082.31;;;6.71;54.84
20628;BME280;10473;42.734;24.258;2023-02-04T11:11:57;91075.16;;;6.72;55.25
20628;BME280;10473;42.734;24.258;2023-02-04T11:14:27;91086.31;;;6.62;56.66
20628;BME280;10473;42.734;24.258;2023-02-04T11:16:56;91075.56;;;6.41;57.62
20628;BME280;10473;42.734;24.258;2023-02-04T11:19:33;91075.72;;;6.22;60.64
20628;BME280;10473;42.734;24.258;2023-02-04T11:22:05;91084.28;;;6.15;63.66
20628;BME280;10473;42.734;24.258;2023-02-04T11:24:33;91085.44;;;6.18;64.28
20628;BME280;10473;42.734;24.258;2023-02-04T11:27:07;91069.72;;;5.66;62.28
20628;BME280;10473;42.734;24.258;2023-02-04T11:29:44;91077.88;;;5.57;66.57
20628;BME280;10473;42.734;24.258;2023-02-04T11:32:27;91076.63;;;5.25;69.37
20628;BME280;10473;42.734;24.258;2023-02-04T11:35:20;91061.44;;;4.89;70.56
20628;BME280;10473;42.734;24.258;2023-02-04T11:37:48;91069.53;;;4.58;72.72
20628;BME280;10473;42.734;24.258;2023-02-04T11:40:27;91071.44;;;4.20;74.70
20628;BME280;10473;42.734;24.258;2023-02-04T11:42:57;91068.06;;;4.00;76.16
20628;BME280;10473;42.734;24.258;2023-02-04T11:45:28;91071.78;;;3.80;76.71
20628;BME280;10473;42.734;24.258;2023-02-04T11:47:59;91056.47;;;3.63;78.32
20628;BME280;10473;42.734;24.258;2023-02-04T11:50:31;91055.25;;;3.42;78.56
20628;BME280;10473;42.734;24.258;2023-02-04T11:53:00;91069.03;;;3.39;79.87
20628;BME280;10473;42.734;24.258;2023-02-04T11:55:28;91056.94;;;3.50;79.64
20628;BME280;10473;42.734;24.258;2023-02-04T11:57:57;91055.72;;;3.63;73.06
20628;BME280;10473;42.734;24.258;2023-02-04T12:00:27;91048.13;;;3.58;73.78
20628;BME280;10473;42.734;24.258;2023-02-04T12:02:57;91057.63;;;3.66;74.77
20628;BME280;10473;42.734;24.258;2023-02-04T12:05:39;91060.69;;;3.87;72.99
20628;BME280;10473;42.734;24.258;2023-02-04T12:08:12;91053.94;;;4.05;69.43
20628;BME280;10473;42.734;24.258;2023-02-04T12:10:58;91062.63;;;4.09;69.92
20628;BME280;10473;42.734;24.258;2023-02-04T12:13:27;91062.34;;;4.14;72.65
20628;BME280;10473;42.734;24.258;2023-02-04T12:15:58;91050.63;;;4.08;73.66
20628;BME280;10473;42.734;24.258;2023-02-04T12:18:26;91033.94;;;3.78;73.53
20628;BME280;10473;42.734;24.258;2023-02-04T12:20:56;91058.41;;;3.85;75.76
20628;BME280;10473;42.734;24.258;2023-02-04T12:23:26;91052.28;;;3.78;76.95
20628;BME280;10473;42.734;24.258;2023-02-04T12:25:54;91057.16;;;3.79;77.43
20628;BME280;10473;42.734;24.258;2023-02-04T12:28:22;91050.75;;;3.58;78.30
20628;BME280;10473;42.734;24.258;2023-02-04T12:30:50;91058.09;;;3.52;78.49
20628;BME280;10473;42.734;24.258;2023-02-04T12:33:18;91053.91;;;3.48;80.01
20628;BME280;10473;42.734;24.258;2023-02-04T12:35:48;91047.75;;;3.40;79.69
20628;BME280;10473;42.734;24.258;2023-02-04T12:38:17;91054.53;;;3.26;81.00
20628;BME280;10473;42.734;24.258;2023-02-04T12:40:45;91026.94;;;3.13;80.64
20628;BME280;10473;42.734;24.258;2023-02-04T12:43:12;91042.16;;;3.23;81.67
20628;BME280;10473;42.734;24.258;2023-02-04T12:45:40;91044.50;;;3.28;80.85
20628;BME280;10473;42.734;24.258;2023-02-04T12:48:11;91049.03;;;3.31;76.39
20628;BME280;10473;42.734;24.258;2023-02-04T12:50:39;91037.09;;;3.49;76.93
20628;BME280;10473;42.734;24.258;2023-02-04T12:53:08;91030.34;;;3.48;78.20
20628;BME280;10473;42.734;24.258;2023-02-04T12:55:38;91048.13;;;3.58;80.32
20628;BME280;10473;42.734;24.258;2023-02-04T12:58:05;91027.31;;;3.65;80.47
20628;BME280;10473;42.734;24.258;2023-02-04T13:00:33;91041.25;;;3.88;79.99
20628;BME280;10473;42.734;24.258;2023-02-04T13:03:00;91038.19;;;3.86;79.78
20628;BME280;10473;42.734;24.258;2023-02-04T13:05:28;91036.75;;;3.88;79.54
20628;BME280;10473;42.734;24.258;2023-02-04T13:07:56;91052.00;;;4.02;78.42
20628;BME280;10473;42.734;24.258;2023-02-04T13:10:23;91056.47;;;4.01;79.02